الصفحة الرئيسية
METAR-TAF:

METAR-TAF

مطار :

بريزبين, أستراليا

دائرة عرض: 27-23S, خط طول: 153-06E, ارتفاع: 4 متر

مراقبة الطقس الحالي

تاريخ ووقت الإصدار 30 دقيقة قبل الساعة 19:30UTC
ريح 7 عقدة من الجنوب/الجنوب الغربي
درجة الحرارة 15°درجة مئوية
الرطوبة 88%
ضغط 1017 hPa
الرؤية 10 كم أو أكثر
غيوم قليلة على ارتفاع 2500 قدم

METAR: YBBN 171930Z 21007KT 9999 FEW025 15/13 Q1017

زمن: 06:00 (20:00 UTC)

توقعات

تاريخ ووقت الإصدار 2ساعات و 55 دقيقة قبل الساعة 17:05UTC
التوقعات صالحة من17 الساعة 18 UTC إلى 19 الساعة 00 UTC
ريح 8 عقدة من الجنوب/الجنوب الغربي
الرؤية 10 كم أو أكثر
غيوم قليلة على ارتفاع 2500 قدم
غيوم مفككة على ارتفاع 4000 قدم
من 18 الساعة 0200 UTC
ريح 12 عقدة من الجنوب الشرقي
الرؤية 10 كم أو أكثر
غيوم قليلة على ارتفاع 3000 قدم
من 18 الساعة 1200 UTC
ريح 6 عقدة من الجنوب/الجنوب الغربي
الرؤية 10 كم أو أكثر
الغيوم لا تقل 1500 م ولا وجود لمزنة ركامية السحاب الأسود

TAF: YBBN 171705Z 1718/1900 20008KT 9999 FEW025 BKN040 FM180200 14012KT 9999 FEW030 FM181200 20006KT CAVOK

أرصاد الطقس والتوقعات من أكثر من 4000 مطار (تقارير الطقس للمطار METAR والتنبؤ بالطقس بالمطارTAF).

المحطات المتاحة هي النقط الصفراء والحمراء على الخريطة.

حرك المؤشر فوق النقطة لمعرفة اسم المحطة.

ثم انقر لمعرفة أرصاد وتوقعات الطقس.

لتغيير الخارطة: اضغط على الأزرار الخضراء مع رمز الصليب الأسود للتكبير. على الزر الأخضر مع شرطة للتصغير، أو على الأسهم الخضراء للخرائط المجاورة.


METAR-TAF: